Dodgeville, Wisconsin
Current Conditions -  °F | °C
As of 7:50 AM on Thursday 29 Jan 2015 (Local Time) from KMRJ Reporting Station
Overcast Overcast  
Wind Chill: 21°   Ceiling: 1300
Heat Index: 32°   Visibility: 7mi
Dew Point: 28°   Wind: 17mph
Humidity: 87%   Direction: 320°NW
Pressure: 29.91"   Gusts: 23mph
Location:  42.96°N, 90.13°W
Report Text: KMRJ 291350Z AUTO 32015G20KT 7SM OVC013 00/M02 A2991 RMK AO2
Loading
Personal Weather Stations






























Interactive Weather Map New forecast layout! Learn more

10-Day Weather Forecast

Advertisements
Track Severe Weather on mobile